createdAt,value
2023-05-20T00:00:01.617Z,13.90
2023-05-20T00:02:29.810Z,13.90
2023-05-20T00:04:57.840Z,13.90
2023-05-20T00:07:26.150Z,13.90
2023-05-20T00:09:54.196Z,13.90
2023-05-20T00:12:22.123Z,13.90
2023-05-20T00:14:50.105Z,13.90
2023-05-20T00:17:19.371Z,13.90
2023-05-20T00:19:47.315Z,13.90
2023-05-20T00:22:15.448Z,13.80
2023-05-20T00:24:43.331Z,13.90
2023-05-20T00:27:11.238Z,13.90
2023-05-20T00:29:39.186Z,13.90
2023-05-20T00:32:07.870Z,13.80
2023-05-20T00:34:37.195Z,13.80
2023-05-20T00:37:05.159Z,13.80
2023-05-20T00:39:33.152Z,13.70
2023-05-20T00:42:03.423Z,13.70
2023-05-20T00:44:31.376Z,13.70
2023-05-20T00:46:59.485Z,13.70
2023-05-20T00:49:27.486Z,13.70
2023-05-20T00:51:56.783Z,13.70
2023-05-20T00:54:24.752Z,13.70
2023-05-20T00:56:52.810Z,13.70
2023-05-20T00:59:21.034Z,13.70
2023-05-20T01:01:49.099Z,13.70
2023-05-20T01:04:17.126Z,13.70
2023-05-20T01:06:46.176Z,13.70
2023-05-20T01:09:16.157Z,13.70
2023-05-20T01:11:49.658Z,13.70
2023-05-20T01:14:20.050Z,13.70
2023-05-20T01:16:53.851Z,13.70
2023-05-20T01:19:34.107Z,13.60
2023-05-20T01:22:04.063Z,13.60
2023-05-20T01:24:33.719Z,13.60
2023-05-20T01:27:01.771Z,13.60
2023-05-20T01:29:32.706Z,13.60
2023-05-20T01:32:02.601Z,13.60
2023-05-20T01:34:31.191Z,13.50
2023-05-20T01:36:59.153Z,13.50
2023-05-20T01:39:27.816Z,13.40
2023-05-20T01:41:57.462Z,13.40
2023-05-20T01:44:25.405Z,13.30
2023-05-20T01:46:53.414Z,13.30
2023-05-20T01:49:21.401Z,13.30
2023-05-20T01:51:49.348Z,13.30
2023-05-20T01:54:17.288Z,13.20
2023-05-20T01:56:46.096Z,13.20
2023-05-20T01:59:15.398Z,13.20
2023-05-20T02:01:43.522Z,13.20
2023-05-20T02:04:11.853Z,13.20
2023-05-20T02:06:39.801Z,13.20
2023-05-20T02:09:08.049Z,13.20
2023-05-20T02:11:36.188Z,13.20
2023-05-20T02:14:04.154Z,13.20
2023-05-20T02:16:33.557Z,13.20
2023-05-20T02:19:02.179Z,13.20
2023-05-20T02:21:30.221Z,13.30
2023-05-20T02:23:58.123Z,13.30
2023-05-20T02:26:26.383Z,13.30
2023-05-20T02:28:54.301Z,13.30
2023-05-20T02:31:22.893Z,13.30
2023-05-20T02:33:52.236Z,13.30
2023-05-20T02:36:20.178Z,13.20
2023-05-20T02:38:48.035Z,13.20
2023-05-20T02:41:16.058Z,13.20
2023-05-20T02:43:45.066Z,13.20
2023-05-20T02:46:13.017Z,13.20
2023-05-20T02:48:40.973Z,13.20
2023-05-20T02:51:10.263Z,13.20
2023-05-20T02:53:38.206Z,13.20
2023-05-20T02:56:06.697Z,13.20
2023-05-20T02:58:35.749Z,13.20
2023-05-20T03:01:03.753Z,13.20
2023-05-20T03:03:31.989Z,13.10
2023-05-20T03:05:59.979Z,13.10
2023-05-20T03:08:29.721Z,13.10
2023-05-20T03:10:57.676Z,13.10
2023-05-20T03:13:25.753Z,13.10
2023-05-20T03:15:54.158Z,13.10
2023-05-20T03:18:22.183Z,13.10
2023-05-20T03:20:50.102Z,13.10
2023-05-20T03:23:17.983Z,13.10
2023-05-20T03:25:47.593Z,13.10
2023-05-20T03:28:15.535Z,13.10
2023-05-20T03:30:43.581Z,13.10
2023-05-20T03:33:11.559Z,13.10
2023-05-20T03:35:39.475Z,13.00
2023-05-20T03:38:07.462Z,13.00
2023-05-20T03:40:35.572Z,13.00
2023-05-20T03:43:04.868Z,13.00
2023-05-20T03:45:34.661Z,13.00
2023-05-20T03:48:03.437Z,13.00
2023-05-20T03:50:32.175Z,13.00
2023-05-20T03:53:00.151Z,13.00
2023-05-20T03:55:28.293Z,13.00
2023-05-20T03:57:56.406Z,13.00
2023-05-20T04:00:25.941Z,12.90
2023-05-20T04:02:53.896Z,13.00
2023-05-20T04:05:21.873Z,13.00
2023-05-20T04:07:49.881Z,13.00
2023-05-20T04:10:19.713Z,12.90
2023-05-20T04:12:47.687Z,13.00
2023-05-20T04:15:15.767Z,13.00
2023-05-20T04:17:48.338Z,13.00
2023-05-20T04:20:16.383Z,13.00
2023-05-20T04:22:44.261Z,13.00
2023-05-20T04:25:12.445Z,13.00
2023-05-20T04:27:40.698Z,13.00
2023-05-20T04:30:10.231Z,13.00
2023-05-20T04:32:38.532Z,13.10
2023-05-20T04:35:11.886Z,13.10
2023-05-20T04:37:40.290Z,13.10
2023-05-20T04:40:09.488Z,13.10
2023-05-20T04:42:37.678Z,13.10
2023-05-20T04:45:06.314Z,13.10
2023-05-20T04:47:38.998Z,13.10
2023-05-20T04:50:11.679Z,13.10
2023-05-20T04:52:40.212Z,13.10
2023-05-20T04:55:10.319Z,13.20
2023-05-20T04:57:41.524Z,13.20
2023-05-20T05:00:10.705Z,13.20
2023-05-20T05:02:38.761Z,13.30
2023-05-20T05:05:08.955Z,13.30
2023-05-20T05:07:37.047Z,13.40
2023-05-20T05:10:05.308Z,13.40
2023-05-20T05:12:33.188Z,13.50
2023-05-20T05:15:01.322Z,13.50
2023-05-20T05:17:29.651Z,13.60
2023-05-20T05:19:57.593Z,13.60
2023-05-20T05:22:26.975Z,13.70
2023-05-20T05:24:55.746Z,13.70
2023-05-20T05:27:26.472Z,13.80
2023-05-20T05:29:54.404Z,13.90
2023-05-20T05:32:22.386Z,13.90
2023-05-20T05:34:50.422Z,13.90
2023-05-20T05:37:18.418Z,14.00
2023-05-20T05:39:47.712Z,14.10
2023-05-20T05:42:15.700Z,14.10
2023-05-20T05:44:44.419Z,14.10
2023-05-20T05:47:12.644Z,14.10
2023-05-20T05:49:40.674Z,14.10
2023-05-20T05:52:08.657Z,14.20
2023-05-20T05:54:36.688Z,14.20
2023-05-20T05:57:07.774Z,14.20
2023-05-20T05:59:36.170Z,14.30
2023-05-20T06:02:04.214Z,14.30
2023-05-20T06:04:32.273Z,14.30
2023-05-20T06:07:00.312Z,14.40
2023-05-20T06:09:28.742Z,14.40
2023-05-20T06:11:56.639Z,14.50
2023-05-20T06:14:25.899Z,14.50
2023-05-20T06:16:53.997Z,14.60
2023-05-20T06:19:22.232Z,14.70
2023-05-20T06:21:50.279Z,14.80
2023-05-20T06:24:18.184Z,14.90
2023-05-20T06:26:46.179Z,14.90
2023-05-20T06:29:14.155Z,15.00
2023-05-20T06:31:43.520Z,15.00
2023-05-20T06:34:11.426Z,15.10
2023-05-20T06:36:39.413Z,15.10
2023-05-20T06:39:12.270Z,15.10
2023-05-20T06:41:40.747Z,15.20
2023-05-20T06:44:08.989Z,15.20
2023-05-20T06:46:37.068Z,15.30
2023-05-20T06:49:06.384Z,15.40
2023-05-20T06:51:34.285Z,15.40
2023-05-20T06:54:02.427Z,15.40
2023-05-20T06:56:30.496Z,15.40
2023-05-20T06:58:58.421Z,15.50
2023-05-20T07:01:26.380Z,15.50
2023-05-20T07:03:54.340Z,15.50
2023-05-20T07:06:24.043Z,15.50
2023-05-20T07:08:51.956Z,15.50
2023-05-20T07:11:19.819Z,15.60
2023-05-20T07:13:47.751Z,15.70
2023-05-20T07:16:15.673Z,15.70
2023-05-20T07:18:43.678Z,15.70
2023-05-20T07:21:11.613Z,15.70
2023-05-20T07:23:40.864Z,15.70
2023-05-20T07:26:08.820Z,15.80
2023-05-20T07:28:36.782Z,15.90
2023-05-20T07:31:04.870Z,15.90
2023-05-20T07:33:32.914Z,15.90
2023-05-20T07:36:00.928Z,16.00
2023-05-20T07:38:28.876Z,16.10
2023-05-20T07:40:58.214Z,16.20
2023-05-20T07:43:26.229Z,16.30
2023-05-20T07:45:54.212Z,16.40
2023-05-20T07:48:22.206Z,16.40
2023-05-20T07:50:50.099Z,16.50
2023-05-20T07:53:18.063Z,16.50
2023-05-20T07:55:45.993Z,16.60
2023-05-20T07:58:15.372Z,16.60
2023-05-20T08:00:43.348Z,16.60
2023-05-20T08:03:12.011Z,16.60
2023-05-20T08:05:40.398Z,16.60
2023-05-20T08:08:10.462Z,16.70
2023-05-20T08:10:38.489Z,16.70
2023-05-20T08:13:06.455Z,16.80
2023-05-20T08:15:37.530Z,16.80
2023-05-20T08:18:08.514Z,16.90
2023-05-20T08:20:36.636Z,17.10
2023-05-20T08:23:04.680Z,17.20
2023-05-20T08:25:32.820Z,17.20
2023-05-20T08:28:03.900Z,17.30
2023-05-20T08:30:31.909Z,17.40
2023-05-20T08:33:01.860Z,17.60
2023-05-20T08:35:29.950Z,17.70
2023-05-20T08:37:58.201Z,17.80
2023-05-20T08:40:27.575Z,18.00
2023-05-20T08:42:56.040Z,18.00
2023-05-20T08:45:28.560Z,18.00
2023-05-20T08:47:57.315Z,18.10
2023-05-20T08:50:26.648Z,18.20
2023-05-20T08:52:54.970Z,18.20
2023-05-20T08:55:27.083Z,18.30
2023-05-20T08:57:55.796Z,18.40
2023-05-20T09:00:27.372Z,18.40
2023-05-20T09:02:56.207Z,18.40
2023-05-20T09:05:26.344Z,18.40
2023-05-20T09:07:54.560Z,18.50
2023-05-20T09:10:22.528Z,18.60
2023-05-20T09:12:50.830Z,18.70
2023-05-20T09:15:18.770Z,18.70
2023-05-20T09:17:46.799Z,18.70
2023-05-20T09:20:15.541Z,18.70
2023-05-20T09:22:44.834Z,18.80
2023-05-20T09:25:13.377Z,18.90
2023-05-20T09:27:41.554Z,18.90
2023-05-20T09:30:12.668Z,19.00
2023-05-20T09:32:40.771Z,19.10
2023-05-20T09:35:09.468Z,19.20
2023-05-20T09:37:37.923Z,19.30
2023-05-20T09:40:10.118Z,19.30
2023-05-20T09:42:43.628Z,19.40
2023-05-20T09:45:11.721Z,19.50
2023-05-20T09:47:40.709Z,19.50
2023-05-20T09:50:10.277Z,19.60
2023-05-20T09:52:39.435Z,19.60
2023-05-20T09:55:10.833Z,19.70
2023-05-20T09:57:39.574Z,19.80
2023-05-20T10:00:10.311Z,19.80
2023-05-20T10:02:39.864Z,19.80
2023-05-20T10:05:20.341Z,19.90
2023-05-20T10:08:23.053Z,19.90
2023-05-20T10:10:59.554Z,19.90
2023-05-20T10:13:50.131Z,20.00
2023-05-20T10:16:30.150Z,20.00
2023-05-20T10:19:06.758Z,20.00
2023-05-20T10:21:34.854Z,20.00
2023-05-20T10:24:09.999Z,20.00
2023-05-20T10:26:39.895Z,20.00
2023-05-20T10:29:25.722Z,20.00
2023-05-20T10:31:54.313Z,20.00
2023-05-20T10:34:24.040Z,20.10
2023-05-20T10:37:01.722Z,20.10
2023-05-20T10:39:31.021Z,20.10
2023-05-20T10:42:28.291Z,20.20
2023-05-20T10:44:56.358Z,20.30
2023-05-20T10:47:25.754Z,20.40
2023-05-20T10:49:54.376Z,20.50
2023-05-20T10:52:22.617Z,20.60
2023-05-20T10:54:57.427Z,20.60
2023-05-20T10:57:29.922Z,20.70
2023-05-20T10:59:58.405Z,20.80
2023-05-20T11:02:28.809Z,20.80
2023-05-20T11:04:58.137Z,20.90
2023-05-20T11:07:28.179Z,20.90
2023-05-20T11:09:56.150Z,21.00
2023-05-20T11:12:27.165Z,21.00
2023-05-20T11:14:56.036Z,21.10
2023-05-20T11:17:23.986Z,21.10
2023-05-20T11:19:52.022Z,21.10
2023-05-20T11:22:20.025Z,21.20
2023-05-20T11:24:48.125Z,21.20
2023-05-20T11:27:16.107Z,21.20
2023-05-20T11:29:45.765Z,21.20
2023-05-20T11:32:13.893Z,21.20
2023-05-20T11:34:44.736Z,21.30
2023-05-20T11:37:13.714Z,21.30
2023-05-20T11:39:41.660Z,21.30
2023-05-20T11:42:09.628Z,21.30
2023-05-20T11:44:38.492Z,21.30
2023-05-20T11:47:07.941Z,21.30
2023-05-20T11:49:41.474Z,21.30
2023-05-20T11:52:11.470Z,21.30
2023-05-20T11:54:39.431Z,21.40
2023-05-20T11:57:07.573Z,21.50
2023-05-20T11:59:36.671Z,21.60
2023-05-20T12:02:04.666Z,21.60
2023-05-20T12:04:34.017Z,21.60
2023-05-20T12:07:04.063Z,21.60
2023-05-20T12:09:32.037Z,21.60
2023-05-20T12:12:00.030Z,21.50
2023-05-20T12:14:27.963Z,21.50
2023-05-20T12:16:55.884Z,21.50
2023-05-20T12:19:24.249Z,21.40
2023-05-20T12:21:53.788Z,21.40
2023-05-20T12:24:21.743Z,21.40
2023-05-20T12:26:49.823Z,21.30
2023-05-20T12:29:17.758Z,21.30
2023-05-20T12:31:46.229Z,21.30
2023-05-20T12:34:14.205Z,21.20
2023-05-20T12:36:42.425Z,21.20
2023-05-20T12:39:12.413Z,21.20
2023-05-20T12:41:40.427Z,21.20
2023-05-20T12:44:08.402Z,21.10
2023-05-20T12:46:36.708Z,21.20
2023-05-20T12:49:04.962Z,21.10
2023-05-20T12:51:32.882Z,21.20
2023-05-20T12:54:00.831Z,21.30
2023-05-20T12:56:30.559Z,21.40
2023-05-20T12:58:58.566Z,21.50
2023-05-20T13:01:26.694Z,21.70
2023-05-20T13:03:55.414Z,21.80
2023-05-20T13:06:23.379Z,21.90
2023-05-20T13:08:51.343Z,22.00
2023-05-20T13:11:19.407Z,22.00
2023-05-20T13:13:48.751Z,22.00
2023-05-20T13:16:17.995Z,22.10
2023-05-20T13:18:45.952Z,22.10
2023-05-20T13:21:13.905Z,22.10
2023-05-20T13:23:42.897Z,22.10
2023-05-20T13:26:11.347Z,22.10
2023-05-20T13:28:39.265Z,22.20
2023-05-20T13:31:08.561Z,22.20
2023-05-20T13:33:36.750Z,22.20
2023-05-20T13:36:05.077Z,22.20
2023-05-20T13:38:35.099Z,22.20
2023-05-20T13:41:03.191Z,22.20
2023-05-20T13:43:33.233Z,22.10
2023-05-20T13:46:01.521Z,22.10
2023-05-20T13:48:34.109Z,22.00
2023-05-20T13:51:02.316Z,22.00
2023-05-20T13:53:30.382Z,22.00
2023-05-20T13:55:58.809Z,21.90
2023-05-20T13:58:26.775Z,21.90
2023-05-20T14:00:54.952Z,21.90
2023-05-20T14:03:23.097Z,21.90
2023-05-20T14:05:52.958Z,21.80
2023-05-20T14:08:20.981Z,21.80
2023-05-20T14:10:48.940Z,21.90
2023-05-20T14:13:17.002Z,21.90
2023-05-20T14:15:45.195Z,21.90
2023-05-20T14:18:13.151Z,21.90
2023-05-20T14:20:41.146Z,21.90
2023-05-20T14:23:10.514Z,22.00
2023-05-20T14:25:38.705Z,22.00
2023-05-20T14:28:07.081Z,22.00
2023-05-20T14:30:35.190Z,22.00
2023-05-20T14:33:03.362Z,22.00
2023-05-20T14:35:31.334Z,22.10
2023-05-20T14:37:59.312Z,22.10
2023-05-20T14:40:28.711Z,22.10
2023-05-20T14:42:56.675Z,22.10
2023-05-20T14:45:24.672Z,22.10
2023-05-20T14:47:52.696Z,22.00
2023-05-20T14:50:20.774Z,22.10
2023-05-20T14:52:48.706Z,22.10
2023-05-20T14:55:16.806Z,22.10
2023-05-20T14:57:46.230Z,22.10
2023-05-20T15:00:14.744Z,22.10
2023-05-20T15:02:42.873Z,22.10
2023-05-20T15:05:12.031Z,22.10
2023-05-20T15:07:40.189Z,22.00
2023-05-20T15:10:09.107Z,22.00
2023-05-20T15:12:37.008Z,22.00
2023-05-20T15:15:07.369Z,22.00
2023-05-20T15:17:35.413Z,21.90
2023-05-20T15:20:03.847Z,21.90
2023-05-20T15:22:31.977Z,21.90
2023-05-20T15:24:59.924Z,21.80
2023-05-20T15:27:27.867Z,21.80
2023-05-20T15:29:55.826Z,21.80
2023-05-20T15:32:25.239Z,21.80
2023-05-20T15:34:53.387Z,21.80
2023-05-20T15:37:22.044Z,21.80
2023-05-20T15:39:50.081Z,21.80
2023-05-20T15:42:18.587Z,21.80
2023-05-20T15:44:47.103Z,21.80
2023-05-20T15:47:15.086Z,21.80
2023-05-20T15:49:44.432Z,21.80
2023-05-20T15:52:14.062Z,21.80
2023-05-20T15:54:42.226Z,21.80
2023-05-20T15:57:10.199Z,21.90
2023-05-20T15:59:38.187Z,21.80
2023-05-20T16:02:06.262Z,21.80
2023-05-20T16:04:34.339Z,21.80
2023-05-20T16:07:03.659Z,21.80
2023-05-20T16:09:31.654Z,21.80
2023-05-20T16:11:59.661Z,21.80
2023-05-20T16:14:27.636Z,21.80
2023-05-20T16:16:55.631Z,21.80
2023-05-20T16:19:23.970Z,21.80
2023-05-20T16:21:51.933Z,21.90
2023-05-20T16:24:21.258Z,21.90
2023-05-20T16:26:49.194Z,21.90
2023-05-20T16:29:17.160Z,21.90
2023-05-20T16:31:46.708Z,22.00
2023-05-20T16:34:16.347Z,22.00
2023-05-20T16:36:45.131Z,22.00
2023-05-20T16:39:13.271Z,22.00
2023-05-20T16:41:42.945Z,22.00
2023-05-20T16:44:11.118Z,22.10
2023-05-20T16:46:39.116Z,22.10
2023-05-20T16:49:07.183Z,22.10
2023-05-20T16:51:35.150Z,22.10
2023-05-20T16:54:03.196Z,22.10
2023-05-20T16:56:31.259Z,22.10
2023-05-20T16:59:00.615Z,22.10
2023-05-20T17:01:29.119Z,22.00
2023-05-20T17:03:57.386Z,22.00
2023-05-20T17:06:25.379Z,22.00
2023-05-20T17:08:53.393Z,22.00
2023-05-20T17:11:21.462Z,22.00
2023-05-20T17:13:49.445Z,21.90
2023-05-20T17:16:18.896Z,21.90
2023-05-20T17:18:48.295Z,21.90
2023-05-20T17:21:20.256Z,21.80
2023-05-20T17:23:48.364Z,21.80
2023-05-20T17:26:16.427Z,21.80
2023-05-20T17:28:46.476Z,21.80
2023-05-20T17:31:15.718Z,21.70
2023-05-20T17:33:45.185Z,21.70
2023-05-20T17:36:13.926Z,21.70
2023-05-20T17:38:41.876Z,21.60
2023-05-20T17:41:10.022Z,21.60
2023-05-20T17:43:37.938Z,21.60
2023-05-20T17:46:06.637Z,21.50
2023-05-20T17:48:34.808Z,21.50
2023-05-20T17:51:04.438Z,21.50
2023-05-20T17:53:32.390Z,21.40
2023-05-20T17:56:01.341Z,21.40
2023-05-20T17:58:30.315Z,21.40
2023-05-20T18:00:58.265Z,21.40
2023-05-20T18:03:27.836Z,21.40
2023-05-20T18:05:56.387Z,21.30
2023-05-20T18:08:26.266Z,21.20
2023-05-20T18:10:54.320Z,21.20
2023-05-20T18:13:22.375Z,21.20
2023-05-20T18:15:50.357Z,21.20
2023-05-20T18:18:18.309Z,21.10
2023-05-20T18:20:46.295Z,21.10
2023-05-20T18:23:14.229Z,21.00
2023-05-20T18:25:43.660Z,21.00
2023-05-20T18:28:13.200Z,21.00
2023-05-20T18:30:41.242Z,20.90
2023-05-20T18:33:09.420Z,20.90
2023-05-20T18:35:37.368Z,20.90
2023-05-20T18:38:05.690Z,20.80
2023-05-20T18:40:33.921Z,20.80
2023-05-20T18:43:03.578Z,20.70
2023-05-20T18:45:31.594Z,20.70
2023-05-20T18:48:00.403Z,20.60
2023-05-20T18:50:28.512Z,20.60
2023-05-20T18:52:56.509Z,20.50
2023-05-20T18:55:24.849Z,20.40
2023-05-20T18:57:53.082Z,20.40
2023-05-20T19:00:22.494Z,20.30
2023-05-20T19:02:50.552Z,20.20
2023-05-20T19:05:19.717Z,20.20
2023-05-20T19:07:47.819Z,20.10
2023-05-20T19:10:16.148Z,20.00
2023-05-20T19:12:44.463Z,20.00
2023-05-20T19:15:12.659Z,19.90
2023-05-20T19:17:42.064Z,19.90
2023-05-20T19:20:10.814Z,19.80
2023-05-20T19:22:39.380Z,19.70
2023-05-20T19:25:08.222Z,19.70
2023-05-20T19:27:36.267Z,19.60
2023-05-20T19:30:05.297Z,19.60
2023-05-20T19:32:33.308Z,19.60
2023-05-20T19:35:02.725Z,19.60
2023-05-20T19:37:32.340Z,19.60
2023-05-20T19:40:00.426Z,19.50
2023-05-20T19:42:28.455Z,19.50
2023-05-20T19:44:57.214Z,19.50
2023-05-20T19:47:25.264Z,19.40
2023-05-20T19:49:53.321Z,19.40
2023-05-20T19:52:22.852Z,19.40
2023-05-20T19:54:50.746Z,19.40
2023-05-20T19:57:18.742Z,19.30
2023-05-20T19:59:46.700Z,19.30
2023-05-20T20:02:14.896Z,19.20
2023-05-20T20:04:42.976Z,19.20
2023-05-20T20:07:11.028Z,19.20
2023-05-20T20:09:40.595Z,19.20
2023-05-20T20:12:09.290Z,19.20
2023-05-20T20:14:38.069Z,19.10
2023-05-20T20:17:06.270Z,19.10
2023-05-20T20:19:34.664Z,19.00
2023-05-20T20:22:02.776Z,19.00
2023-05-20T20:24:30.815Z,19.00
2023-05-20T20:27:00.157Z,19.00
2023-05-20T20:29:28.095Z,19.00
2023-05-20T20:31:56.706Z,18.90
2023-05-20T20:34:24.730Z,18.80
2023-05-20T20:36:55.072Z,18.80
2023-05-20T20:39:24.992Z,18.70
2023-05-20T20:41:54.553Z,18.70
2023-05-20T20:44:25.407Z,18.70
2023-05-20T20:46:55.051Z,18.60
2023-05-20T20:49:24.749Z,18.60
2023-05-20T20:51:54.694Z,18.60
2023-05-20T20:54:22.698Z,18.50
2023-05-20T20:56:51.861Z,18.50
2023-05-20T20:59:21.988Z,18.50
2023-05-20T21:01:52.804Z,18.40
2023-05-20T21:04:21.047Z,18.40
2023-05-20T21:06:49.056Z,18.40
2023-05-20T21:09:17.419Z,18.40
2023-05-20T21:11:45.933Z,18.40
2023-05-20T21:14:14.249Z,18.40
2023-05-20T21:16:43.273Z,18.30
2023-05-20T21:19:12.858Z,18.30
2023-05-20T21:21:40.933Z,18.20
2023-05-20T21:24:09.023Z,18.10
2023-05-20T21:26:36.970Z,18.10
2023-05-20T21:29:05.979Z,18.10
2023-05-20T21:31:34.027Z,18.10
2023-05-20T21:34:02.037Z,18.00
2023-05-20T21:36:32.247Z,18.00
2023-05-20T21:39:00.224Z,18.00
2023-05-20T21:41:28.191Z,18.10
2023-05-20T21:43:56.178Z,18.00
2023-05-20T21:46:24.279Z,18.00
2023-05-20T21:48:52.209Z,18.10
2023-05-20T21:51:20.152Z,18.10
2023-05-20T21:53:49.539Z,18.10
2023-05-20T21:56:17.680Z,18.10
2023-05-20T21:58:45.737Z,18.10
2023-05-20T22:01:13.843Z,18.10
2023-05-20T22:03:47.958Z,18.10
2023-05-20T22:06:17.622Z,18.10
2023-05-20T22:08:45.682Z,18.10
2023-05-20T22:11:15.655Z,18.10
2023-05-20T22:13:44.321Z,18.10
2023-05-20T22:16:12.631Z,18.00
2023-05-20T22:18:40.591Z,18.00
2023-05-20T22:21:08.734Z,18.00
2023-05-20T22:23:36.680Z,17.90
2023-05-20T22:26:04.915Z,18.00
2023-05-20T22:28:34.297Z,17.90
2023-05-20T22:31:02.318Z,17.90
2023-05-20T22:33:30.337Z,17.90
2023-05-20T22:35:58.356Z,17.80
2023-05-20T22:38:27.282Z,17.80
2023-05-20T22:40:55.227Z,17.80
2023-05-20T22:43:23.768Z,17.80
2023-05-20T22:45:53.108Z,17.80
2023-05-20T22:48:23.010Z,17.80
2023-05-20T22:50:51.205Z,17.80
2023-05-20T22:53:19.241Z,17.80
2023-05-20T22:55:47.227Z,17.80
2023-05-20T22:58:15.326Z,17.70
2023-05-20T23:00:44.394Z,17.70
2023-05-20T23:03:13.880Z,17.70
2023-05-20T23:05:41.836Z,17.70
2023-05-20T23:08:09.789Z,17.70
2023-05-20T23:10:37.874Z,17.60
2023-05-20T23:13:06.003Z,17.60
2023-05-20T23:15:34.147Z,17.60
2023-05-20T23:18:02.406Z,17.50
2023-05-20T23:20:31.808Z,17.50
2023-05-20T23:23:05.621Z,17.50
2023-05-20T23:25:39.387Z,17.50
2023-05-20T23:28:07.591Z,17.40
2023-05-20T23:30:36.414Z,17.40
2023-05-20T23:33:04.834Z,17.40
2023-05-20T23:35:34.555Z,17.40
2023-05-20T23:38:02.750Z,17.40
2023-05-20T23:40:30.725Z,17.40
2023-05-20T23:42:58.722Z,17.40
2023-05-20T23:45:26.647Z,17.40
2023-05-20T23:47:56.007Z,17.40
2023-05-20T23:50:24.082Z,17.40
2023-05-20T23:52:53.489Z,17.40
2023-05-20T23:55:21.462Z,17.40
2023-05-20T23:57:49.743Z,17.40
